Atlantic, North Carolina
Current Conditions -  °F | °C
As of 4:56 AM on Thursday 23 Oct 2014 (Local Time) from KNBT Reporting Station
Clear Clear  
Wind Chill: 56°   Ceiling: Unl
Heat Index: 56°   Visibility: 7mi
Dew Point: 46°   Wind: 17mph
Humidity: 69%   Direction: 290°WNW
Pressure: 29.94"   Gusts: 25mph
Location:  34.89°N, 76.34°W
Report Text: KNBT 230856Z AUTO 29015G22KT 7SM CLR 13/08 A2994 RMK AO2 SLP143 6//// T01330078 55004 PNO
Loading
Personal Weather Stations






























Interactive Weather Map New forecast layout! Learn more

10-Day Weather Forecast

Advertisements
Track Severe Weather on mobile